sensor_id;sensor_type;location;lat;lon;timestamp;P1;durP1;ratioP1;P2;durP2;ratioP2
17488;SDS011;8861;52.644;4.734;2023-12-22T00:02:01;21.70;;;3.40;;
17488;SDS011;8861;52.644;4.734;2023-12-22T00:04:29;19.80;;;2.93;;
17488;SDS011;8861;52.644;4.734;2023-12-22T00:07:34;21.70;;;3.40;;
17488;SDS011;8861;52.644;4.734;2023-12-22T00:10:04;22.87;;;3.53;;
17488;SDS011;8861;52.644;4.734;2023-12-22T00:15:16;15.47;;;2.90;;
17488;SDS011;8861;52.644;4.734;2023-12-22T00:17:49;26.00;;;3.33;;
17488;SDS011;8861;52.644;4.734;2023-12-22T00:20:19;13.80;;;3.07;;
17488;SDS011;8861;52.644;4.734;2023-12-22T00:22:59;20.77;;;3.80;;
17488;SDS011;8861;52.644;4.734;2023-12-22T00:25:33;25.23;;;3.87;;
17488;SDS011;8861;52.644;4.734;2023-12-22T00:28:03;25.93;;;3.87;;
17488;SDS011;8861;52.644;4.734;2023-12-22T00:30:33;22.17;;;3.90;;
17488;SDS011;8861;52.644;4.734;2023-12-22T00:33:04;20.07;;;3.03;;
17488;SDS011;8861;52.644;4.734;2023-12-22T00:35:33;13.17;;;2.87;;
17488;SDS011;8861;52.644;4.734;2023-12-22T00:40:52;16.20;;;3.37;;
17488;SDS011;8861;52.644;4.734;2023-12-22T00:43:28;19.13;;;3.10;;
17488;SDS011;8861;52.644;4.734;2023-12-22T00:45:54;15.60;;;3.30;;
17488;SDS011;8861;52.644;4.734;2023-12-22T00:48:23;23.80;;;3.47;;
17488;SDS011;8861;52.644;4.734;2023-12-22T00:50:56;24.53;;;3.37;;
17488;SDS011;8861;52.644;4.734;2023-12-22T00:53:25;19.07;;;3.83;;
17488;SDS011;8861;52.644;4.734;2023-12-22T00:55:54;25.23;;;4.07;;
17488;SDS011;8861;52.644;4.734;2023-12-22T00:58:27;29.67;;;4.47;;
17488;SDS011;8861;52.644;4.734;2023-12-22T01:01:08;33.63;;;5.10;;
17488;SDS011;8861;52.644;4.734;2023-12-22T01:03:50;35.73;;;4.30;;
17488;SDS011;8861;52.644;4.734;2023-12-22T01:06:19;36.47;;;5.23;;
17488;SDS011;8861;52.644;4.734;2023-12-22T01:08:48;25.93;;;4.07;;
17488;SDS011;8861;52.644;4.734;2023-12-22T01:11:15;27.63;;;4.87;;
17488;SDS011;8861;52.644;4.734;2023-12-22T01:13:50;36.73;;;5.43;;
17488;SDS011;8861;52.644;4.734;2023-12-22T01:16:20;37.83;;;4.80;;
17488;SDS011;8861;52.644;4.734;2023-12-22T01:21:35;35.07;;;5.00;;
17488;SDS011;8861;52.644;4.734;2023-12-22T01:24:07;39.50;;;6.00;;
17488;SDS011;8861;52.644;4.734;2023-12-22T01:26:36;35.30;;;5.10;;
17488;SDS011;8861;52.644;4.734;2023-12-22T01:29:07;28.70;;;5.30;;
17488;SDS011;8861;52.644;4.734;2023-12-22T01:31:35;24.70;;;4.70;;
17488;SDS011;8861;52.644;4.734;2023-12-22T01:34:02;31.63;;;5.27;;
17488;SDS011;8861;52.644;4.734;2023-12-22T01:36:29;26.73;;;5.20;;
17488;SDS011;8861;52.644;4.734;2023-12-22T01:38:56;36.97;;;4.77;;
17488;SDS011;8861;52.644;4.734;2023-12-22T01:41:31;38.07;;;5.20;;
17488;SDS011;8861;52.644;4.734;2023-12-22T01:44:12;40.63;;;5.87;;
17488;SDS011;8861;52.644;4.734;2023-12-22T01:46:49;30.87;;;5.17;;
17488;SDS011;8861;52.644;4.734;2023-12-22T01:49:17;48.27;;;6.07;;
17488;SDS011;8861;52.644;4.734;2023-12-22T01:51:46;44.03;;;6.47;;
17488;SDS011;8861;52.644;4.734;2023-12-22T01:54:16;43.20;;;6.03;;
17488;SDS011;8861;52.644;4.734;2023-12-22T01:56:45;29.57;;;4.87;;
17488;SDS011;8861;52.644;4.734;2023-12-22T01:59:13;22.27;;;3.50;;
17488;SDS011;8861;52.644;4.734;2023-12-22T02:01:44;17.80;;;2.77;;
17488;SDS011;8861;52.644;4.734;2023-12-22T02:04:11;13.53;;;2.93;;
17488;SDS011;8861;52.644;4.734;2023-12-22T02:06:40;20.20;;;2.87;;
17488;SDS011;8861;52.644;4.734;2023-12-22T02:09:08;17.43;;;2.90;;
17488;SDS011;8861;52.644;4.734;2023-12-22T02:11:36;16.23;;;2.67;;
17488;SDS011;8861;52.644;4.734;2023-12-22T02:14:06;18.23;;;3.30;;
17488;SDS011;8861;52.644;4.734;2023-12-22T02:16:37;18.37;;;3.00;;
17488;SDS011;8861;52.644;4.734;2023-12-22T02:19:10;18.50;;;3.10;;
17488;SDS011;8861;52.644;4.734;2023-12-22T02:22:02;18.67;;;3.63;;
17488;SDS011;8861;52.644;4.734;2023-12-22T02:24:32;24.43;;;3.70;;
17488;SDS011;8861;52.644;4.734;2023-12-22T02:27:01;29.77;;;4.87;;
17488;SDS011;8861;52.644;4.734;2023-12-22T02:29:36;23.13;;;3.70;;
17488;SDS011;8861;52.644;4.734;2023-12-22T02:32:07;26.47;;;4.40;;
17488;SDS011;8861;52.644;4.734;2023-12-22T02:35:05;27.47;;;4.47;;
17488;SDS011;8861;52.644;4.734;2023-12-22T02:37:40;25.73;;;3.93;;
17488;SDS011;8861;52.644;4.734;2023-12-22T02:40:10;19.07;;;3.77;;
17488;SDS011;8861;52.644;4.734;2023-12-22T02:42:40;31.53;;;4.13;;
17488;SDS011;8861;52.644;4.734;2023-12-22T02:45:13;22.37;;;3.87;;
17488;SDS011;8861;52.644;4.734;2023-12-22T02:47:42;27.00;;;3.60;;
17488;SDS011;8861;52.644;4.734;2023-12-22T02:50:09;27.20;;;3.80;;
17488;SDS011;8861;52.644;4.734;2023-12-22T02:52:37;23.57;;;3.90;;
17488;SDS011;8861;52.644;4.734;2023-12-22T02:55:05;27.73;;;4.20;;
17488;SDS011;8861;52.644;4.734;2023-12-22T02:57:34;20.03;;;3.80;;
17488;SDS011;8861;52.644;4.734;2023-12-22T03:00:01;31.93;;;4.13;;
17488;SDS011;8861;52.644;4.734;2023-12-22T03:02:32;35.37;;;4.70;;
17488;SDS011;8861;52.644;4.734;2023-12-22T03:05:08;38.00;;;4.87;;
17488;SDS011;8861;52.644;4.734;2023-12-22T03:07:35;29.20;;;4.47;;
17488;SDS011;8861;52.644;4.734;2023-12-22T03:10:08;22.63;;;3.50;;
17488;SDS011;8861;52.644;4.734;2023-12-22T03:12:40;22.97;;;3.80;;
17488;SDS011;8861;52.644;4.734;2023-12-22T03:17:52;32.03;;;4.43;;
17488;SDS011;8861;52.644;4.734;2023-12-22T03:20:19;25.93;;;4.30;;
17488;SDS011;8861;52.644;4.734;2023-12-22T03:22:46;22.43;;;3.97;;
17488;SDS011;8861;52.644;4.734;2023-12-22T03:25:15;26.27;;;4.37;;
17488;SDS011;8861;52.644;4.734;2023-12-22T03:27:51;21.07;;;4.70;;
17488;SDS011;8861;52.644;4.734;2023-12-22T03:30:19;35.17;;;5.43;;
17488;SDS011;8861;52.644;4.734;2023-12-22T03:33:01;32.93;;;5.33;;
17488;SDS011;8861;52.644;4.734;2023-12-22T03:35:29;37.87;;;5.50;;
17488;SDS011;8861;52.644;4.734;2023-12-22T03:37:56;34.43;;;5.47;;
17488;SDS011;8861;52.644;4.734;2023-12-22T03:40:42;32.43;;;5.13;;
17488;SDS011;8861;52.644;4.734;2023-12-22T03:43:16;37.33;;;4.87;;
17488;SDS011;8861;52.644;4.734;2023-12-22T03:45:50;28.37;;;4.00;;
17488;SDS011;8861;52.644;4.734;2023-12-22T03:48:17;22.20;;;4.20;;
17488;SDS011;8861;52.644;4.734;2023-12-22T03:50:44;25.07;;;3.80;;
17488;SDS011;8861;52.644;4.734;2023-12-22T03:53:11;23.97;;;3.37;;
17488;SDS011;8861;52.644;4.734;2023-12-22T03:55:38;22.33;;;3.67;;
17488;SDS011;8861;52.644;4.734;2023-12-22T03:58:05;21.23;;;3.73;;
17488;SDS011;8861;52.644;4.734;2023-12-22T04:00:34;21.20;;;3.30;;
17488;SDS011;8861;52.644;4.734;2023-12-22T04:03:04;25.87;;;4.20;;
17488;SDS011;8861;52.644;4.734;2023-12-22T04:05:31;25.60;;;4.03;;
17488;SDS011;8861;52.644;4.734;2023-12-22T04:07:58;29.30;;;4.50;;
17488;SDS011;8861;52.644;4.734;2023-12-22T04:10:26;35.03;;;5.23;;
17488;SDS011;8861;52.644;4.734;2023-12-22T04:12:53;31.60;;;4.50;;
17488;SDS011;8861;52.644;4.734;2023-12-22T04:15:20;42.50;;;5.87;;
17488;SDS011;8861;52.644;4.734;2023-12-22T04:17:49;35.67;;;5.30;;
17488;SDS011;8861;52.644;4.734;2023-12-22T04:20:17;41.70;;;6.77;;
17488;SDS011;8861;52.644;4.734;2023-12-22T04:23:01;41.73;;;6.03;;
17488;SDS011;8861;52.644;4.734;2023-12-22T04:25:31;38.07;;;6.00;;
17488;SDS011;8861;52.644;4.734;2023-12-22T04:27:58;44.27;;;6.77;;
17488;SDS011;8861;52.644;4.734;2023-12-22T04:30:25;35.13;;;5.43;;
17488;SDS011;8861;52.644;4.734;2023-12-22T04:32:54;46.40;;;6.30;;
17488;SDS011;8861;52.644;4.734;2023-12-22T04:35:21;37.40;;;5.40;;
17488;SDS011;8861;52.644;4.734;2023-12-22T04:37:48;37.03;;;6.73;;
17488;SDS011;8861;52.644;4.734;2023-12-22T04:40:19;41.17;;;5.70;;
17488;SDS011;8861;52.644;4.734;2023-12-22T04:42:46;45.03;;;6.67;;
17488;SDS011;8861;52.644;4.734;2023-12-22T04:45:13;33.50;;;5.70;;
17488;SDS011;8861;52.644;4.734;2023-12-22T04:50:36;38.60;;;5.67;;
17488;SDS011;8861;52.644;4.734;2023-12-22T04:53:03;35.00;;;5.00;;
17488;SDS011;8861;52.644;4.734;2023-12-22T04:55:30;31.37;;;4.87;;
17488;SDS011;8861;52.644;4.734;2023-12-22T04:57:58;31.07;;;5.03;;
17488;SDS011;8861;52.644;4.734;2023-12-22T05:00:27;31.00;;;5.33;;
17488;SDS011;8861;52.644;4.734;2023-12-22T05:02:55;32.57;;;4.93;;
17488;SDS011;8861;52.644;4.734;2023-12-22T05:05:37;34.00;;;5.43;;
17488;SDS011;8861;52.644;4.734;2023-12-22T05:08:05;20.87;;;3.20;;
17488;SDS011;8861;52.644;4.734;2023-12-22T05:10:52;25.40;;;4.03;;
17488;SDS011;8861;52.644;4.734;2023-12-22T05:13:42;34.83;;;5.13;;
17488;SDS011;8861;52.644;4.734;2023-12-22T05:16:10;26.57;;;4.27;;
17488;SDS011;8861;52.644;4.734;2023-12-22T05:18:37;31.53;;;4.60;;
17488;SDS011;8861;52.644;4.734;2023-12-22T05:21:07;28.23;;;4.30;;
17488;SDS011;8861;52.644;4.734;2023-12-22T05:23:38;26.93;;;4.60;;
17488;SDS011;8861;52.644;4.734;2023-12-22T05:26:05;35.40;;;5.30;;
17488;SDS011;8861;52.644;4.734;2023-12-22T05:28:33;26.43;;;4.13;;
17488;SDS011;8861;52.644;4.734;2023-12-22T05:31:01;26.73;;;4.20;;
17488;SDS011;8861;52.644;4.734;2023-12-22T05:33:29;27.03;;;4.70;;
17488;SDS011;8861;52.644;4.734;2023-12-22T05:35:56;19.80;;;4.47;;
17488;SDS011;8861;52.644;4.734;2023-12-22T05:38:25;23.87;;;3.90;;
17488;SDS011;8861;52.644;4.734;2023-12-22T05:40:52;22.50;;;3.83;;
17488;SDS011;8861;52.644;4.734;2023-12-22T05:43:20;34.37;;;4.53;;
17488;SDS011;8861;52.644;4.734;2023-12-22T05:45:47;25.03;;;4.23;;
17488;SDS011;8861;52.644;4.734;2023-12-22T05:48:18;21.50;;;4.07;;
17488;SDS011;8861;52.644;4.734;2023-12-22T05:50:47;21.60;;;4.27;;
17488;SDS011;8861;52.644;4.734;2023-12-22T05:53:16;24.97;;;4.17;;
17488;SDS011;8861;52.644;4.734;2023-12-22T05:55:45;25.80;;;4.40;;
17488;SDS011;8861;52.644;4.734;2023-12-22T05:58:11;29.43;;;4.60;;
17488;SDS011;8861;52.644;4.734;2023-12-22T06:00:38;28.07;;;4.20;;
17488;SDS011;8861;52.644;4.734;2023-12-22T06:03:05;28.93;;;4.87;;
17488;SDS011;8861;52.644;4.734;2023-12-22T06:05:32;29.43;;;4.83;;
17488;SDS011;8861;52.644;4.734;2023-12-22T06:07:59;37.07;;;5.30;;
17488;SDS011;8861;52.644;4.734;2023-12-22T06:10:25;38.67;;;5.83;;
17488;SDS011;8861;52.644;4.734;2023-12-22T06:12:57;32.60;;;5.00;;
17488;SDS011;8861;52.644;4.734;2023-12-22T06:15:29;32.27;;;5.10;;
17488;SDS011;8861;52.644;4.734;2023-12-22T06:17:56;24.40;;;5.30;;
17488;SDS011;8861;52.644;4.734;2023-12-22T06:20:23;27.53;;;4.90;;
17488;SDS011;8861;52.644;4.734;2023-12-22T06:22:51;29.37;;;4.70;;
17488;SDS011;8861;52.644;4.734;2023-12-22T06:25:18;27.47;;;5.03;;
17488;SDS011;8861;52.644;4.734;2023-12-22T06:27:46;30.43;;;5.23;;
17488;SDS011;8861;52.644;4.734;2023-12-22T06:30:17;31.17;;;5.07;;
17488;SDS011;8861;52.644;4.734;2023-12-22T06:32:45;28.00;;;4.63;;
17488;SDS011;8861;52.644;4.734;2023-12-22T06:35:13;23.83;;;4.20;;
17488;SDS011;8861;52.644;4.734;2023-12-22T06:37:43;33.43;;;5.20;;
17488;SDS011;8861;52.644;4.734;2023-12-22T06:40:16;25.23;;;4.60;;
17488;SDS011;8861;52.644;4.734;2023-12-22T06:42:44;28.23;;;4.97;;
17488;SDS011;8861;52.644;4.734;2023-12-22T06:45:11;31.77;;;5.23;;
17488;SDS011;8861;52.644;4.734;2023-12-22T06:47:42;28.03;;;5.00;;
17488;SDS011;8861;52.644;4.734;2023-12-22T06:50:09;27.43;;;4.37;;
17488;SDS011;8861;52.644;4.734;2023-12-22T06:52:37;31.63;;;5.73;;
17488;SDS011;8861;52.644;4.734;2023-12-22T06:55:07;23.80;;;4.33;;
17488;SDS011;8861;52.644;4.734;2023-12-22T06:57:34;28.33;;;4.50;;
17488;SDS011;8861;52.644;4.734;2023-12-22T07:00:01;31.37;;;5.17;;
17488;SDS011;8861;52.644;4.734;2023-12-22T07:02:32;36.37;;;5.73;;
17488;SDS011;8861;52.644;4.734;2023-12-22T07:05:05;29.47;;;5.20;;
17488;SDS011;8861;52.644;4.734;2023-12-22T07:08:04;30.73;;;5.03;;
17488;SDS011;8861;52.644;4.734;2023-12-22T07:10:32;27.33;;;4.67;;
17488;SDS011;8861;52.644;4.734;2023-12-22T07:12:59;33.73;;;5.60;;
17488;SDS011;8861;52.644;4.734;2023-12-22T07:15:29;44.73;;;6.27;;
17488;SDS011;8861;52.644;4.734;2023-12-22T07:17:58;41.87;;;6.80;;
17488;SDS011;8861;52.644;4.734;2023-12-22T07:20:27;46.97;;;7.23;;
17488;SDS011;8861;52.644;4.734;2023-12-22T07:22:57;51.33;;;7.87;;
17488;SDS011;8861;52.644;4.734;2023-12-22T07:25:24;47.47;;;8.13;;
17488;SDS011;8861;52.644;4.734;2023-12-22T07:27:51;48.00;;;7.53;;
17488;SDS011;8861;52.644;4.734;2023-12-22T07:30:19;48.43;;;6.50;;
17488;SDS011;8861;52.644;4.734;2023-12-22T07:32:46;48.90;;;6.90;;
17488;SDS011;8861;52.644;4.734;2023-12-22T07:35:17;50.43;;;7.30;;
17488;SDS011;8861;52.644;4.734;2023-12-22T07:37:47;48.13;;;7.47;;
17488;SDS011;8861;52.644;4.734;2023-12-22T07:40:14;36.37;;;6.13;;
17488;SDS011;8861;52.644;4.734;2023-12-22T07:42:44;40.70;;;5.93;;
17488;SDS011;8861;52.644;4.734;2023-12-22T07:45:11;30.53;;;5.30;;
17488;SDS011;8861;52.644;4.734;2023-12-22T07:47:40;26.90;;;5.10;;
17488;SDS011;8861;52.644;4.734;2023-12-22T07:56:12;29.80;;;5.27;;
17488;SDS011;8861;52.644;4.734;2023-12-22T07:58:53;33.40;;;5.63;;
17488;SDS011;8861;52.644;4.734;2023-12-22T08:01:20;47.90;;;7.47;;
17488;SDS011;8861;52.644;4.734;2023-12-22T08:03:50;45.07;;;6.70;;
17488;SDS011;8861;52.644;4.734;2023-12-22T08:06:23;50.37;;;7.47;;
17488;SDS011;8861;52.644;4.734;2023-12-22T08:08:51;45.63;;;7.20;;
17488;SDS011;8861;52.644;4.734;2023-12-22T08:11:20;43.70;;;7.00;;
17488;SDS011;8861;52.644;4.734;2023-12-22T08:13:53;45.40;;;8.07;;
17488;SDS011;8861;52.644;4.734;2023-12-22T08:16:20;31.87;;;5.80;;
17488;SDS011;8861;52.644;4.734;2023-12-22T08:18:54;39.33;;;6.27;;
17488;SDS011;8861;52.644;4.734;2023-12-22T08:21:30;41.90;;;6.63;;
17488;SDS011;8861;52.644;4.734;2023-12-22T08:24:24;37.33;;;7.03;;
17488;SDS011;8861;52.644;4.734;2023-12-22T08:26:51;39.93;;;6.50;;
17488;SDS011;8861;52.644;4.734;2023-12-22T08:29:41;36.03;;;5.47;;
17488;SDS011;8861;52.644;4.734;2023-12-22T08:32:10;33.83;;;6.03;;
17488;SDS011;8861;52.644;4.734;2023-12-22T08:34:48;31.10;;;4.90;;
17488;SDS011;8861;52.644;4.734;2023-12-22T08:37:49;26.97;;;5.40;;
17488;SDS011;8861;52.644;4.734;2023-12-22T08:40:25;27.87;;;5.03;;
17488;SDS011;8861;52.644;4.734;2023-12-22T08:42:54;33.57;;;6.30;;
17488;SDS011;8861;52.644;4.734;2023-12-22T08:45:28;37.53;;;6.07;;
17488;SDS011;8861;52.644;4.734;2023-12-22T08:48:05;39.53;;;6.17;;
17488;SDS011;8861;52.644;4.734;2023-12-22T08:50:40;30.33;;;5.47;;
17488;SDS011;8861;52.644;4.734;2023-12-22T08:53:13;34.53;;;5.37;;
17488;SDS011;8861;52.644;4.734;2023-12-22T08:58:51;37.40;;;5.23;;
17488;SDS011;8861;52.644;4.734;2023-12-22T09:01:25;26.83;;;4.57;;
17488;SDS011;8861;52.644;4.734;2023-12-22T09:03:52;24.33;;;4.60;;
17488;SDS011;8861;52.644;4.734;2023-12-22T09:06:29;24.70;;;4.03;;
17488;SDS011;8861;52.644;4.734;2023-12-22T09:08:57;25.23;;;3.77;;
17488;SDS011;8861;52.644;4.734;2023-12-22T09:11:33;24.73;;;4.23;;
17488;SDS011;8861;52.644;4.734;2023-12-22T09:14:04;28.60;;;4.50;;
17488;SDS011;8861;52.644;4.734;2023-12-22T09:16:40;24.20;;;4.67;;
17488;SDS011;8861;52.644;4.734;2023-12-22T09:19:12;26.20;;;4.37;;
17488;SDS011;8861;52.644;4.734;2023-12-22T09:21:41;21.50;;;4.60;;
17488;SDS011;8861;52.644;4.734;2023-12-22T09:27:10;31.27;;;5.47;;
17488;SDS011;8861;52.644;4.734;2023-12-22T09:29:38;27.73;;;4.90;;
17488;SDS011;8861;52.644;4.734;2023-12-22T09:32:19;28.50;;;5.00;;
17488;SDS011;8861;52.644;4.734;2023-12-22T09:34:47;26.77;;;5.17;;
17488;SDS011;8861;52.644;4.734;2023-12-22T09:37:29;26.47;;;5.10;;
17488;SDS011;8861;52.644;4.734;2023-12-22T09:40:04;21.60;;;4.73;;
17488;SDS011;8861;52.644;4.734;2023-12-22T09:42:36;25.50;;;4.93;;
17488;SDS011;8861;52.644;4.734;2023-12-22T09:48:10;29.07;;;4.50;;
17488;SDS011;8861;52.644;4.734;2023-12-22T09:50:54;29.67;;;5.50;;
17488;SDS011;8861;52.644;4.734;2023-12-22T09:53:23;25.93;;;4.93;;
17488;SDS011;8861;52.644;4.734;2023-12-22T09:55:52;31.03;;;5.53;;
17488;SDS011;8861;52.644;4.734;2023-12-22T09:58:24;23.33;;;4.63;;
17488;SDS011;8861;52.644;4.734;2023-12-22T10:00:59;22.03;;;4.50;;
17488;SDS011;8861;52.644;4.734;2023-12-22T10:03:28;30.07;;;4.63;;
17488;SDS011;8861;52.644;4.734;2023-12-22T10:06:05;21.87;;;4.67;;
17488;SDS011;8861;52.644;4.734;2023-12-22T10:08:42;23.57;;;4.50;;
17488;SDS011;8861;52.644;4.734;2023-12-22T10:11:22;20.73;;;3.97;;
17488;SDS011;8861;52.644;4.734;2023-12-22T10:13:54;26.97;;;4.70;;
17488;SDS011;8861;52.644;4.734;2023-12-22T10:16:49;21.70;;;3.80;;
17488;SDS011;8861;52.644;4.734;2023-12-22T10:19:22;20.87;;;4.27;;
17488;SDS011;8861;52.644;4.734;2023-12-22T10:21:50;23.77;;;4.20;;
17488;SDS011;8861;52.644;4.734;2023-12-22T10:27:13;16.43;;;3.67;;
17488;SDS011;8861;52.644;4.734;2023-12-22T10:29:49;25.73;;;4.33;;
17488;SDS011;8861;52.644;4.734;2023-12-22T10:32:20;21.23;;;3.60;;
17488;SDS011;8861;52.644;4.734;2023-12-22T10:34:48;26.23;;;4.70;;
17488;SDS011;8861;52.644;4.734;2023-12-22T10:37:17;25.00;;;4.00;;
17488;SDS011;8861;52.644;4.734;2023-12-22T10:39:46;17.83;;;3.30;;
17488;SDS011;8861;52.644;4.734;2023-12-22T10:42:14;17.23;;;3.10;;
17488;SDS011;8861;52.644;4.734;2023-12-22T10:44:41;23.60;;;3.90;;
17488;SDS011;8861;52.644;4.734;2023-12-22T10:47:10;20.27;;;3.80;;
17488;SDS011;8861;52.644;4.734;2023-12-22T10:49:37;23.23;;;4.40;;
17488;SDS011;8861;52.644;4.734;2023-12-22T10:52:10;21.10;;;3.97;;
17488;SDS011;8861;52.644;4.734;2023-12-22T10:54:43;24.97;;;3.80;;
17488;SDS011;8861;52.644;4.734;2023-12-22T10:57:16;26.20;;;3.63;;
17488;SDS011;8861;52.644;4.734;2023-12-22T10:59:45;23.67;;;3.73;;
17488;SDS011;8861;52.644;4.734;2023-12-22T11:02:15;21.10;;;3.70;;
17488;SDS011;8861;52.644;4.734;2023-12-22T11:04:47;21.97;;;3.80;;
17488;SDS011;8861;52.644;4.734;2023-12-22T11:07:23;26.40;;;3.90;;
17488;SDS011;8861;52.644;4.734;2023-12-22T11:09:53;22.67;;;3.97;;
17488;SDS011;8861;52.644;4.734;2023-12-22T11:12:23;25.67;;;4.23;;
17488;SDS011;8861;52.644;4.734;2023-12-22T11:14:52;23.67;;;3.70;;
17488;SDS011;8861;52.644;4.734;2023-12-22T11:17:22;22.17;;;4.17;;
17488;SDS011;8861;52.644;4.734;2023-12-22T11:19:50;26.10;;;4.30;;
17488;SDS011;8861;52.644;4.734;2023-12-22T11:22:21;21.57;;;4.23;;
17488;SDS011;8861;52.644;4.734;2023-12-22T11:24:51;22.97;;;3.90;;
17488;SDS011;8861;52.644;4.734;2023-12-22T11:27:20;21.97;;;3.70;;
17488;SDS011;8861;52.644;4.734;2023-12-22T11:29:48;22.40;;;3.97;;
17488;SDS011;8861;52.644;4.734;2023-12-22T11:32:17;22.03;;;4.13;;
17488;SDS011;8861;52.644;4.734;2023-12-22T11:34:47;15.30;;;3.03;;
17488;SDS011;8861;52.644;4.734;2023-12-22T11:37:15;29.40;;;4.37;;
17488;SDS011;8861;52.644;4.734;2023-12-22T11:39:43;22.27;;;3.70;;
17488;SDS011;8861;52.644;4.734;2023-12-22T11:42:15;20.37;;;3.80;;
17488;SDS011;8861;52.644;4.734;2023-12-22T11:44:48;26.70;;;4.43;;
17488;SDS011;8861;52.644;4.734;2023-12-22T11:47:15;26.47;;;4.00;;
17488;SDS011;8861;52.644;4.734;2023-12-22T11:49:43;26.17;;;4.20;;
17488;SDS011;8861;52.644;4.734;2023-12-22T11:52:15;19.50;;;3.40;;
17488;SDS011;8861;52.644;4.734;2023-12-22T11:54:43;22.07;;;4.13;;
17488;SDS011;8861;52.644;4.734;2023-12-22T11:57:33;22.20;;;4.33;;
17488;SDS011;8861;52.644;4.734;2023-12-22T12:00:03;22.83;;;4.30;;
17488;SDS011;8861;52.644;4.734;2023-12-22T12:02:33;21.83;;;3.90;;
17488;SDS011;8861;52.644;4.734;2023-12-22T12:05:11;23.20;;;4.47;;
17488;SDS011;8861;52.644;4.734;2023-12-22T12:07:41;26.40;;;3.90;;
17488;SDS011;8861;52.644;4.734;2023-12-22T12:10:11;27.20;;;4.40;;
17488;SDS011;8861;52.644;4.734;2023-12-22T12:12:39;26.23;;;3.97;;
17488;SDS011;8861;52.644;4.734;2023-12-22T12:15:07;29.47;;;4.60;;
17488;SDS011;8861;52.644;4.734;2023-12-22T12:17:39;23.13;;;3.97;;
17488;SDS011;8861;52.644;4.734;2023-12-22T12:20:07;21.67;;;3.77;;
17488;SDS011;8861;52.644;4.734;2023-12-22T12:22:36;19.53;;;3.70;;
17488;SDS011;8861;52.644;4.734;2023-12-22T12:25:10;24.23;;;3.93;;
17488;SDS011;8861;52.644;4.734;2023-12-22T12:27:37;22.10;;;4.20;;
17488;SDS011;8861;52.644;4.734;2023-12-22T12:30:09;28.90;;;4.13;;
17488;SDS011;8861;52.644;4.734;2023-12-22T12:32:39;27.10;;;4.27;;
17488;SDS011;8861;52.644;4.734;2023-12-22T12:35:09;26.53;;;3.83;;
17488;SDS011;8861;52.644;4.734;2023-12-22T12:37:37;28.37;;;4.70;;
17488;SDS011;8861;52.644;4.734;2023-12-22T12:40:05;25.70;;;4.90;;
17488;SDS011;8861;52.644;4.734;2023-12-22T12:42:37;25.00;;;4.30;;
17488;SDS011;8861;52.644;4.734;2023-12-22T12:45:05;24.60;;;4.30;;
17488;SDS011;8861;52.644;4.734;2023-12-22T12:47:33;32.23;;;4.40;;
17488;SDS011;8861;52.644;4.734;2023-12-22T12:50:00;26.13;;;4.20;;
17488;SDS011;8861;52.644;4.734;2023-12-22T12:52:28;31.33;;;5.10;;
17488;SDS011;8861;52.644;4.734;2023-12-22T12:54:55;27.53;;;4.57;;
17488;SDS011;8861;52.644;4.734;2023-12-22T12:57:25;29.13;;;4.63;;
17488;SDS011;8861;52.644;4.734;2023-12-22T12:59:52;29.13;;;4.83;;
17488;SDS011;8861;52.644;4.734;2023-12-22T13:02:20;21.23;;;4.77;;
17488;SDS011;8861;52.644;4.734;2023-12-22T13:04:48;26.10;;;4.00;;
17488;SDS011;8861;52.644;4.734;2023-12-22T13:07:23;26.57;;;4.33;;
17488;SDS011;8861;52.644;4.734;2023-12-22T13:09:51;29.73;;;4.20;;
17488;SDS011;8861;52.644;4.734;2023-12-22T13:12:19;32.03;;;3.97;;
17488;SDS011;8861;52.644;4.734;2023-12-22T13:14:48;29.23;;;4.63;;
17488;SDS011;8861;52.644;4.734;2023-12-22T13:17:16;27.07;;;4.20;;
17488;SDS011;8861;52.644;4.734;2023-12-22T13:19:43;29.10;;;4.37;;
17488;SDS011;8861;52.644;4.734;2023-12-22T13:22:10;28.77;;;4.40;;
17488;SDS011;8861;52.644;4.734;2023-12-22T13:24:39;30.93;;;4.27;;
17488;SDS011;8861;52.644;4.734;2023-12-22T13:27:06;26.23;;;4.20;;
17488;SDS011;8861;52.644;4.734;2023-12-22T13:29:43;18.17;;;3.47;;
17488;SDS011;8861;52.644;4.734;2023-12-22T13:32:18;23.83;;;4.00;;
17488;SDS011;8861;52.644;4.734;2023-12-22T13:34:49;28.00;;;4.67;;
17488;SDS011;8861;52.644;4.734;2023-12-22T13:37:16;30.33;;;4.80;;
17488;SDS011;8861;52.644;4.734;2023-12-22T13:39:44;22.57;;;4.30;;
17488;SDS011;8861;52.644;4.734;2023-12-22T13:42:15;34.17;;;5.03;;
17488;SDS011;8861;52.644;4.734;2023-12-22T13:44:43;30.07;;;4.53;;
17488;SDS011;8861;52.644;4.734;2023-12-22T13:47:12;24.57;;;5.13;;
17488;SDS011;8861;52.644;4.734;2023-12-22T13:49:41;30.07;;;4.70;;
17488;SDS011;8861;52.644;4.734;2023-12-22T13:52:16;22.97;;;4.00;;
17488;SDS011;8861;52.644;4.734;2023-12-22T13:54:52;27.83;;;4.70;;
17488;SDS011;8861;52.644;4.734;2023-12-22T13:57:21;21.37;;;4.27;;
17488;SDS011;8861;52.644;4.734;2023-12-22T13:59:49;25.40;;;4.33;;
17488;SDS011;8861;52.644;4.734;2023-12-22T14:02:19;23.50;;;4.20;;
17488;SDS011;8861;52.644;4.734;2023-12-22T14:04:48;24.33;;;4.33;;
17488;SDS011;8861;52.644;4.734;2023-12-22T14:07:16;25.13;;;4.70;;
17488;SDS011;8861;52.644;4.734;2023-12-22T14:09:43;30.13;;;5.00;;
17488;SDS011;8861;52.644;4.734;2023-12-22T14:12:10;23.07;;;4.23;;
17488;SDS011;8861;52.644;4.734;2023-12-22T14:14:37;26.73;;;4.30;;
17488;SDS011;8861;52.644;4.734;2023-12-22T14:17:04;28.03;;;4.43;;
17488;SDS011;8861;52.644;4.734;2023-12-22T14:19:31;29.47;;;5.10;;
17488;SDS011;8861;52.644;4.734;2023-12-22T14:22:00;30.40;;;5.20;;
17488;SDS011;8861;52.644;4.734;2023-12-22T14:24:27;25.67;;;4.77;;
17488;SDS011;8861;52.644;4.734;2023-12-22T14:26:54;27.90;;;4.50;;
17488;SDS011;8861;52.644;4.734;2023-12-22T14:29:22;26.67;;;4.40;;
17488;SDS011;8861;52.644;4.734;2023-12-22T14:31:49;26.50;;;4.77;;
17488;SDS011;8861;52.644;4.734;2023-12-22T14:34:16;28.57;;;5.10;;
17488;SDS011;8861;52.644;4.734;2023-12-22T14:36:43;29.47;;;5.30;;
17488;SDS011;8861;52.644;4.734;2023-12-22T14:39:12;30.40;;;5.30;;
17488;SDS011;8861;52.644;4.734;2023-12-22T14:41:39;32.07;;;4.93;;
17488;SDS011;8861;52.644;4.734;2023-12-22T14:44:07;28.63;;;5.30;;
17488;SDS011;8861;52.644;4.734;2023-12-22T14:46:36;28.63;;;4.83;;
17488;SDS011;8861;52.644;4.734;2023-12-22T14:49:05;26.23;;;5.07;;
17488;SDS011;8861;52.644;4.734;2023-12-22T14:51:36;29.30;;;4.70;;
17488;SDS011;8861;52.644;4.734;2023-12-22T14:54:03;30.50;;;4.73;;
17488;SDS011;8861;52.644;4.734;2023-12-22T14:56:32;27.37;;;5.03;;
17488;SDS011;8861;52.644;4.734;2023-12-22T14:58:59;28.03;;;5.30;;
17488;SDS011;8861;52.644;4.734;2023-12-22T15:01:26;33.20;;;5.47;;
17488;SDS011;8861;52.644;4.734;2023-12-22T15:03:53;35.97;;;5.53;;
17488;SDS011;8861;52.644;4.734;2023-12-22T15:06:20;30.77;;;5.40;;
17488;SDS011;8861;52.644;4.734;2023-12-22T15:08:47;28.20;;;5.50;;
17488;SDS011;8861;52.644;4.734;2023-12-22T15:11:14;32.63;;;4.90;;
17488;SDS011;8861;52.644;4.734;2023-12-22T15:13:43;27.80;;;4.70;;
17488;SDS011;8861;52.644;4.734;2023-12-22T15:16:10;29.60;;;4.77;;
17488;SDS011;8861;52.644;4.734;2023-12-22T15:18:37;32.93;;;5.03;;
17488;SDS011;8861;52.644;4.734;2023-12-22T15:21:04;29.17;;;5.07;;
17488;SDS011;8861;52.644;4.734;2023-12-22T15:23:31;36.03;;;5.30;;
17488;SDS011;8861;52.644;4.734;2023-12-22T15:25:58;29.37;;;5.33;;
17488;SDS011;8861;52.644;4.734;2023-12-22T15:28:25;31.73;;;5.27;;
17488;SDS011;8861;52.644;4.734;2023-12-22T15:30:54;41.83;;;5.67;;
17488;SDS011;8861;52.644;4.734;2023-12-22T15:33:21;34.00;;;5.40;;
17488;SDS011;8861;52.644;4.734;2023-12-22T15:35:48;34.43;;;6.00;;
17488;SDS011;8861;52.644;4.734;2023-12-22T15:38:21;33.20;;;5.63;;
17488;SDS011;8861;52.644;4.734;2023-12-22T15:40:48;29.70;;;5.77;;